Terminal Aerodrome Forecast
Issued by NWS Huntsville, AL

Home | Current Version | Previous Version | Text Only | Print | Product List | Glossary On
Versions: 1 2 3 4 5 6 7 8 9 10 11 12 13 14 15 16 17 18 19 20 21 22 23 24 25 26
000
FTUS44 KHUN 262006 AAB
TAFMSL
TAF AMD
KMSL 262006Z 2620/2718 10009KT P6SM VCTS BKN050CB BKN250
      TEMPO 2620/2622 VRB10G25KT 3SM TSRA
     FM270200 VRB03KT P6SM SCT050 SCT250
     FM271000 VRB03KT 4SM BR FEW010 SCT100
     FM271300 16005KT P6SM FEW040 SCT250=

USA.gov is the U.S. government's official web portal to all federal, state and local government web resources and services.